sensor_id;sensor_type;location;lat;lon;timestamp;P1;durP1;ratioP1;P2;durP2;ratioP2
17127;SDS011;8679;50.842;4.322;2024-02-28T00:00:10;6.23;;;3.27;;
17127;SDS011;8679;50.842;4.322;2024-02-28T00:02:36;5.80;;;3.00;;
17127;SDS011;8679;50.842;4.322;2024-02-28T00:05:02;5.60;;;3.10;;
17127;SDS011;8679;50.842;4.322;2024-02-28T00:07:28;7.93;;;4.97;;
17127;SDS011;8679;50.842;4.322;2024-02-28T00:09:55;8.07;;;3.70;;
17127;SDS011;8679;50.842;4.322;2024-02-28T00:12:25;11.70;;;2.90;;
17127;SDS011;8679;50.842;4.322;2024-02-28T00:14:51;4.87;;;2.70;;
17127;SDS011;8679;50.842;4.322;2024-02-28T00:17:17;5.30;;;2.90;;
17127;SDS011;8679;50.842;4.322;2024-02-28T00:19:44;3.40;;;2.83;;
17127;SDS011;8679;50.842;4.322;2024-02-28T00:22:10;5.57;;;3.30;;
17127;SDS011;8679;50.842;4.322;2024-02-28T00:24:36;5.37;;;3.07;;
17127;SDS011;8679;50.842;4.322;2024-02-28T00:27:02;4.07;;;2.67;;
17127;SDS011;8679;50.842;4.322;2024-02-28T00:29:28;6.77;;;3.33;;
17127;SDS011;8679;50.842;4.322;2024-02-28T00:31:54;3.73;;;2.90;;
17127;SDS011;8679;50.842;4.322;2024-02-28T00:34:20;3.60;;;2.67;;
17127;SDS011;8679;50.842;4.322;2024-02-28T00:36:46;4.57;;;3.33;;
17127;SDS011;8679;50.842;4.322;2024-02-28T00:39:12;7.43;;;3.20;;
17127;SDS011;8679;50.842;4.322;2024-02-28T00:41:38;5.30;;;3.57;;
17127;SDS011;8679;50.842;4.322;2024-02-28T00:44:04;9.97;;;4.50;;
17127;SDS011;8679;50.842;4.322;2024-02-28T00:46:31;5.80;;;3.30;;
17127;SDS011;8679;50.842;4.322;2024-02-28T00:48:57;5.77;;;3.50;;
17127;SDS011;8679;50.842;4.322;2024-02-28T00:51:23;6.47;;;3.60;;
17127;SDS011;8679;50.842;4.322;2024-02-28T00:53:49;15.73;;;3.43;;
17127;SDS011;8679;50.842;4.322;2024-02-28T00:56:15;7.13;;;3.80;;
17127;SDS011;8679;50.842;4.322;2024-02-28T00:58:43;11.33;;;4.13;;
17127;SDS011;8679;50.842;4.322;2024-02-28T01:01:09;10.90;;;3.57;;
17127;SDS011;8679;50.842;4.322;2024-02-28T01:03:35;8.73;;;4.43;;
17127;SDS011;8679;50.842;4.322;2024-02-28T01:06:01;8.83;;;4.50;;
17127;SDS011;8679;50.842;4.322;2024-02-28T01:08:29;6.80;;;3.03;;
17127;SDS011;8679;50.842;4.322;2024-02-28T01:10:55;4.97;;;3.00;;
17127;SDS011;8679;50.842;4.322;2024-02-28T01:13:21;5.50;;;3.67;;
17127;SDS011;8679;50.842;4.322;2024-02-28T01:15:48;6.83;;;4.20;;
17127;SDS011;8679;50.842;4.322;2024-02-28T01:18:15;3.83;;;3.07;;
17127;SDS011;8679;50.842;4.322;2024-02-28T01:20:41;10.13;;;3.27;;
17127;SDS011;8679;50.842;4.322;2024-02-28T01:23:07;4.43;;;3.63;;
17127;SDS011;8679;50.842;4.322;2024-02-28T01:25:33;6.93;;;3.90;;
17127;SDS011;8679;50.842;4.322;2024-02-28T01:28:00;7.70;;;4.43;;
17127;SDS011;8679;50.842;4.322;2024-02-28T01:30:26;13.90;;;3.80;;
17127;SDS011;8679;50.842;4.322;2024-02-28T01:32:52;8.27;;;3.70;;
17127;SDS011;8679;50.842;4.322;2024-02-28T01:35:18;7.80;;;3.80;;
17127;SDS011;8679;50.842;4.322;2024-02-28T01:37:44;5.50;;;3.43;;
17127;SDS011;8679;50.842;4.322;2024-02-28T01:40:10;5.13;;;2.73;;
17127;SDS011;8679;50.842;4.322;2024-02-28T01:42:36;7.87;;;4.13;;
17127;SDS011;8679;50.842;4.322;2024-02-28T01:45:02;10.13;;;6.13;;
17127;SDS011;8679;50.842;4.322;2024-02-28T01:47:29;13.70;;;8.47;;
17127;SDS011;8679;50.842;4.322;2024-02-28T01:49:56;19.77;;;12.83;;
17127;SDS011;8679;50.842;4.322;2024-02-28T01:52:22;17.83;;;10.60;;
17127;SDS011;8679;50.842;4.322;2024-02-28T01:54:48;20.13;;;10.70;;
17127;SDS011;8679;50.842;4.322;2024-02-28T01:57:14;13.80;;;8.03;;
17127;SDS011;8679;50.842;4.322;2024-02-28T01:59:41;13.27;;;8.27;;
17127;SDS011;8679;50.842;4.322;2024-02-28T02:02:07;10.17;;;7.40;;
17127;SDS011;8679;50.842;4.322;2024-02-28T02:04:34;10.97;;;6.47;;
17127;SDS011;8679;50.842;4.322;2024-02-28T02:07:00;8.20;;;5.23;;
17127;SDS011;8679;50.842;4.322;2024-02-28T02:09:26;8.63;;;5.17;;
17127;SDS011;8679;50.842;4.322;2024-02-28T02:11:52;17.80;;;7.33;;
17127;SDS011;8679;50.842;4.322;2024-02-28T02:14:18;11.30;;;7.23;;
17127;SDS011;8679;50.842;4.322;2024-02-28T02:16:44;9.80;;;6.20;;
17127;SDS011;8679;50.842;4.322;2024-02-28T02:19:10;9.63;;;6.77;;
17127;SDS011;8679;50.842;4.322;2024-02-28T02:21:49;12.30;;;7.13;;
17127;SDS011;8679;50.842;4.322;2024-02-28T02:24:18;10.47;;;5.47;;
17127;SDS011;8679;50.842;4.322;2024-02-28T02:26:44;10.87;;;6.50;;
17127;SDS011;8679;50.842;4.322;2024-02-28T02:29:11;8.20;;;4.43;;
17127;SDS011;8679;50.842;4.322;2024-02-28T02:31:38;7.67;;;4.50;;
17127;SDS011;8679;50.842;4.322;2024-02-28T02:34:05;8.60;;;3.97;;
17127;SDS011;8679;50.842;4.322;2024-02-28T02:36:31;5.03;;;3.57;;
17127;SDS011;8679;50.842;4.322;2024-02-28T02:38:57;7.27;;;3.97;;
17127;SDS011;8679;50.842;4.322;2024-02-28T02:41:23;5.57;;;3.63;;
17127;SDS011;8679;50.842;4.322;2024-02-28T02:43:50;5.77;;;3.30;;
17127;SDS011;8679;50.842;4.322;2024-02-28T02:46:16;4.70;;;2.80;;
17127;SDS011;8679;50.842;4.322;2024-02-28T02:48:42;4.27;;;2.93;;
17127;SDS011;8679;50.842;4.322;2024-02-28T02:51:08;4.57;;;3.43;;
17127;SDS011;8679;50.842;4.322;2024-02-28T02:53:34;6.93;;;4.23;;
17127;SDS011;8679;50.842;4.322;2024-02-28T02:56:00;9.17;;;4.47;;
17127;SDS011;8679;50.842;4.322;2024-02-28T02:58:29;3.13;;;2.33;;
17127;SDS011;8679;50.842;4.322;2024-02-28T03:00:55;6.20;;;3.53;;
17127;SDS011;8679;50.842;4.322;2024-02-28T03:03:21;4.50;;;3.50;;
17127;SDS011;8679;50.842;4.322;2024-02-28T03:05:47;9.07;;;4.10;;
17127;SDS011;8679;50.842;4.322;2024-02-28T03:08:13;13.20;;;3.50;;
17127;SDS011;8679;50.842;4.322;2024-02-28T03:10:39;6.20;;;3.30;;
17127;SDS011;8679;50.842;4.322;2024-02-28T03:13:05;4.90;;;3.20;;
17127;SDS011;8679;50.842;4.322;2024-02-28T03:15:33;7.93;;;2.93;;
17127;SDS011;8679;50.842;4.322;2024-02-28T03:17:59;5.40;;;3.60;;
17127;SDS011;8679;50.842;4.322;2024-02-28T03:20:25;13.73;;;3.90;;
17127;SDS011;8679;50.842;4.322;2024-02-28T03:22:51;4.47;;;3.00;;
17127;SDS011;8679;50.842;4.322;2024-02-28T03:25:17;7.00;;;3.40;;
17127;SDS011;8679;50.842;4.322;2024-02-28T03:27:43;4.00;;;3.00;;
17127;SDS011;8679;50.842;4.322;2024-02-28T03:30:09;5.33;;;2.57;;
17127;SDS011;8679;50.842;4.322;2024-02-28T03:32:35;7.83;;;4.43;;
17127;SDS011;8679;50.842;4.322;2024-02-28T03:35:03;9.27;;;4.40;;
17127;SDS011;8679;50.842;4.322;2024-02-28T03:37:30;7.77;;;3.83;;
17127;SDS011;8679;50.842;4.322;2024-02-28T03:39:56;9.33;;;3.60;;
17127;SDS011;8679;50.842;4.322;2024-02-28T03:42:22;6.20;;;3.30;;
17127;SDS011;8679;50.842;4.322;2024-02-28T03:44:48;5.57;;;3.67;;
17127;SDS011;8679;50.842;4.322;2024-02-28T03:47:14;8.47;;;3.63;;
17127;SDS011;8679;50.842;4.322;2024-02-28T03:49:40;3.60;;;2.50;;
17127;SDS011;8679;50.842;4.322;2024-02-28T03:52:06;5.27;;;3.43;;
17127;SDS011;8679;50.842;4.322;2024-02-28T03:54:33;9.13;;;3.23;;
17127;SDS011;8679;50.842;4.322;2024-02-28T03:56:59;20.80;;;4.37;;
17127;SDS011;8679;50.842;4.322;2024-02-28T03:59:25;4.30;;;3.43;;
17127;SDS011;8679;50.842;4.322;2024-02-28T04:01:51;4.57;;;3.17;;
17127;SDS011;8679;50.842;4.322;2024-02-28T04:04:17;5.80;;;3.00;;
17127;SDS011;8679;50.842;4.322;2024-02-28T04:06:43;9.83;;;3.20;;
17127;SDS011;8679;50.842;4.322;2024-02-28T04:09:09;5.03;;;3.07;;
17127;SDS011;8679;50.842;4.322;2024-02-28T04:11:36;5.50;;;2.43;;
17127;SDS011;8679;50.842;4.322;2024-02-28T04:14:03;6.57;;;3.73;;
17127;SDS011;8679;50.842;4.322;2024-02-28T04:16:29;4.47;;;2.47;;
17127;SDS011;8679;50.842;4.322;2024-02-28T04:18:55;8.50;;;3.70;;
17127;SDS011;8679;50.842;4.322;2024-02-28T04:21:21;4.60;;;3.10;;
17127;SDS011;8679;50.842;4.322;2024-02-28T04:23:47;9.97;;;4.07;;
17127;SDS011;8679;50.842;4.322;2024-02-28T04:26:13;6.07;;;3.57;;
17127;SDS011;8679;50.842;4.322;2024-02-28T04:28:40;4.33;;;3.33;;
17127;SDS011;8679;50.842;4.322;2024-02-28T04:31:06;6.00;;;3.80;;
17127;SDS011;8679;50.842;4.322;2024-02-28T04:33:34;9.30;;;2.97;;
17127;SDS011;8679;50.842;4.322;2024-02-28T04:36:00;5.73;;;3.03;;
17127;SDS011;8679;50.842;4.322;2024-02-28T04:38:27;3.93;;;3.23;;
17127;SDS011;8679;50.842;4.322;2024-02-28T04:40:53;4.30;;;3.53;;
17127;SDS011;8679;50.842;4.322;2024-02-28T04:43:19;5.90;;;3.27;;
17127;SDS011;8679;50.842;4.322;2024-02-28T04:45:45;7.70;;;3.50;;
17127;SDS011;8679;50.842;4.322;2024-02-28T04:48:11;6.10;;;4.23;;
17127;SDS011;8679;50.842;4.322;2024-02-28T04:50:37;4.77;;;2.90;;
17127;SDS011;8679;50.842;4.322;2024-02-28T04:53:03;5.57;;;2.87;;
17127;SDS011;8679;50.842;4.322;2024-02-28T04:55:29;6.63;;;3.37;;
17127;SDS011;8679;50.842;4.322;2024-02-28T04:57:55;4.73;;;4.07;;
17127;SDS011;8679;50.842;4.322;2024-02-28T05:00:21;7.63;;;3.37;;
17127;SDS011;8679;50.842;4.322;2024-02-28T05:02:47;5.60;;;4.77;;
17127;SDS011;8679;50.842;4.322;2024-02-28T05:05:13;5.30;;;3.53;;
17127;SDS011;8679;50.842;4.322;2024-02-28T05:07:40;9.13;;;4.17;;
17127;SDS011;8679;50.842;4.322;2024-02-28T05:10:06;4.60;;;3.53;;
17127;SDS011;8679;50.842;4.322;2024-02-28T05:12:32;10.50;;;3.97;;
17127;SDS011;8679;50.842;4.322;2024-02-28T05:14:58;7.87;;;4.33;;
17127;SDS011;8679;50.842;4.322;2024-02-28T05:17:24;8.27;;;4.03;;
17127;SDS011;8679;50.842;4.322;2024-02-28T05:19:50;12.27;;;4.60;;
17127;SDS011;8679;50.842;4.322;2024-02-28T05:22:16;8.33;;;3.77;;
17127;SDS011;8679;50.842;4.322;2024-02-28T05:24:45;14.00;;;5.07;;
17127;SDS011;8679;50.842;4.322;2024-02-28T05:27:11;10.73;;;3.90;;
17127;SDS011;8679;50.842;4.322;2024-02-28T05:29:37;18.33;;;3.83;;
17127;SDS011;8679;50.842;4.322;2024-02-28T05:32:03;8.07;;;3.53;;
17127;SDS011;8679;50.842;4.322;2024-02-28T05:34:29;9.10;;;5.83;;
17127;SDS011;8679;50.842;4.322;2024-02-28T05:36:55;11.87;;;4.83;;
17127;SDS011;8679;50.842;4.322;2024-02-28T05:39:21;5.00;;;2.93;;
17127;SDS011;8679;50.842;4.322;2024-02-28T05:41:47;5.33;;;3.40;;
17127;SDS011;8679;50.842;4.322;2024-02-28T05:44:13;6.83;;;3.90;;
17127;SDS011;8679;50.842;4.322;2024-02-28T05:46:40;5.17;;;3.27;;
17127;SDS011;8679;50.842;4.322;2024-02-28T05:49:06;12.87;;;4.10;;
17127;SDS011;8679;50.842;4.322;2024-02-28T05:51:32;6.90;;;3.77;;
17127;SDS011;8679;50.842;4.322;2024-02-28T05:53:58;3.40;;;2.53;;
17127;SDS011;8679;50.842;4.322;2024-02-28T05:56:24;6.37;;;3.33;;
17127;SDS011;8679;50.842;4.322;2024-02-28T05:58:50;9.37;;;4.93;;
17127;SDS011;8679;50.842;4.322;2024-02-28T06:01:17;4.60;;;3.23;;
17127;SDS011;8679;50.842;4.322;2024-02-28T06:03:52;5.47;;;3.73;;
17127;SDS011;8679;50.842;4.322;2024-02-28T06:06:18;5.03;;;3.50;;
17127;SDS011;8679;50.842;4.322;2024-02-28T06:08:44;9.07;;;2.87;;
17127;SDS011;8679;50.842;4.322;2024-02-28T06:11:10;7.23;;;3.67;;
17127;SDS011;8679;50.842;4.322;2024-02-28T06:13:36;7.43;;;4.43;;
17127;SDS011;8679;50.842;4.322;2024-02-28T06:16:02;5.93;;;3.63;;
17127;SDS011;8679;50.842;4.322;2024-02-28T06:18:29;5.87;;;3.43;;
17127;SDS011;8679;50.842;4.322;2024-02-28T06:20:58;8.30;;;4.00;;
17127;SDS011;8679;50.842;4.322;2024-02-28T06:23:24;10.00;;;5.17;;
17127;SDS011;8679;50.842;4.322;2024-02-28T06:25:50;8.97;;;3.27;;
17127;SDS011;8679;50.842;4.322;2024-02-28T06:28:17;7.73;;;3.93;;
17127;SDS011;8679;50.842;4.322;2024-02-28T06:30:43;7.80;;;3.57;;
17127;SDS011;8679;50.842;4.322;2024-02-28T06:33:11;6.60;;;3.77;;
17127;SDS011;8679;50.842;4.322;2024-02-28T06:35:37;5.77;;;3.37;;
17127;SDS011;8679;50.842;4.322;2024-02-28T06:38:03;7.43;;;3.47;;
17127;SDS011;8679;50.842;4.322;2024-02-28T06:40:31;7.87;;;3.30;;
17127;SDS011;8679;50.842;4.322;2024-02-28T06:42:58;7.57;;;4.30;;
17127;SDS011;8679;50.842;4.322;2024-02-28T06:45:24;7.83;;;3.33;;
17127;SDS011;8679;50.842;4.322;2024-02-28T06:47:50;10.87;;;5.13;;
17127;SDS011;8679;50.842;4.322;2024-02-28T06:50:16;7.83;;;4.20;;
17127;SDS011;8679;50.842;4.322;2024-02-28T06:52:42;8.03;;;4.73;;
17127;SDS011;8679;50.842;4.322;2024-02-28T06:55:08;4.37;;;2.93;;
17127;SDS011;8679;50.842;4.322;2024-02-28T06:57:42;5.13;;;3.10;;
17127;SDS011;8679;50.842;4.322;2024-02-28T07:00:09;6.97;;;3.10;;
17127;SDS011;8679;50.842;4.322;2024-02-28T07:02:39;9.20;;;4.00;;
17127;SDS011;8679;50.842;4.322;2024-02-28T07:05:05;5.27;;;3.63;;
17127;SDS011;8679;50.842;4.322;2024-02-28T07:07:32;7.17;;;3.30;;
17127;SDS011;8679;50.842;4.322;2024-02-28T07:09:58;8.00;;;3.97;;
17127;SDS011;8679;50.842;4.322;2024-02-28T07:12:25;11.20;;;5.03;;
17127;SDS011;8679;50.842;4.322;2024-02-28T07:14:51;7.83;;;4.07;;
17127;SDS011;8679;50.842;4.322;2024-02-28T07:17:17;13.23;;;5.40;;
17127;SDS011;8679;50.842;4.322;2024-02-28T07:19:43;8.50;;;4.93;;
17127;SDS011;8679;50.842;4.322;2024-02-28T07:22:09;9.90;;;5.10;;
17127;SDS011;8679;50.842;4.322;2024-02-28T07:24:35;6.50;;;3.70;;
17127;SDS011;8679;50.842;4.322;2024-02-28T07:27:02;8.20;;;4.10;;
17127;SDS011;8679;50.842;4.322;2024-02-28T07:29:28;7.60;;;4.43;;
17127;SDS011;8679;50.842;4.322;2024-02-28T07:31:54;8.70;;;3.67;;
17127;SDS011;8679;50.842;4.322;2024-02-28T07:34:20;7.00;;;3.97;;
17127;SDS011;8679;50.842;4.322;2024-02-28T07:36:47;12.00;;;4.07;;
17127;SDS011;8679;50.842;4.322;2024-02-28T07:39:15;8.33;;;3.70;;
17127;SDS011;8679;50.842;4.322;2024-02-28T07:41:41;9.13;;;3.60;;
17127;SDS011;8679;50.842;4.322;2024-02-28T07:44:07;8.17;;;3.50;;
17127;SDS011;8679;50.842;4.322;2024-02-28T07:46:34;9.83;;;3.57;;
17127;SDS011;8679;50.842;4.322;2024-02-28T07:49:00;9.20;;;4.30;;
17127;SDS011;8679;50.842;4.322;2024-02-28T07:51:27;7.23;;;3.30;;
17127;SDS011;8679;50.842;4.322;2024-02-28T07:53:53;6.03;;;3.50;;
17127;SDS011;8679;50.842;4.322;2024-02-28T07:56:20;7.90;;;3.20;;
17127;SDS011;8679;50.842;4.322;2024-02-28T07:58:46;6.00;;;3.33;;
17127;SDS011;8679;50.842;4.322;2024-02-28T08:01:12;9.13;;;4.33;;
17127;SDS011;8679;50.842;4.322;2024-02-28T08:03:38;7.83;;;3.83;;
17127;SDS011;8679;50.842;4.322;2024-02-28T08:06:05;9.53;;;4.40;;
17127;SDS011;8679;50.842;4.322;2024-02-28T08:08:34;5.50;;;2.90;;
17127;SDS011;8679;50.842;4.322;2024-02-28T08:11:00;6.33;;;3.13;;
17127;SDS011;8679;50.842;4.322;2024-02-28T08:13:26;5.30;;;2.73;;
17127;SDS011;8679;50.842;4.322;2024-02-28T08:15:53;12.87;;;4.43;;
17127;SDS011;8679;50.842;4.322;2024-02-28T08:18:19;8.07;;;4.77;;
17127;SDS011;8679;50.842;4.322;2024-02-28T08:20:45;5.20;;;2.80;;
17127;SDS011;8679;50.842;4.322;2024-02-28T08:23:11;5.07;;;3.40;;
17127;SDS011;8679;50.842;4.322;2024-02-28T08:25:38;3.80;;;2.50;;
17127;SDS011;8679;50.842;4.322;2024-02-28T08:28:04;7.97;;;3.23;;
17127;SDS011;8679;50.842;4.322;2024-02-28T08:30:31;7.53;;;3.43;;
17127;SDS011;8679;50.842;4.322;2024-02-28T08:32:59;5.93;;;3.50;;
17127;SDS011;8679;50.842;4.322;2024-02-28T08:35:25;8.97;;;3.20;;
17127;SDS011;8679;50.842;4.322;2024-02-28T08:37:52;7.97;;;2.97;;
17127;SDS011;8679;50.842;4.322;2024-02-28T08:40:18;10.03;;;4.17;;
17127;SDS011;8679;50.842;4.322;2024-02-28T08:42:44;7.97;;;2.93;;
17127;SDS011;8679;50.842;4.322;2024-02-28T08:45:11;7.13;;;2.97;;
17127;SDS011;8679;50.842;4.322;2024-02-28T08:47:37;7.07;;;3.57;;
17127;SDS011;8679;50.842;4.322;2024-02-28T08:50:03;9.47;;;3.23;;
17127;SDS011;8679;50.842;4.322;2024-02-28T08:52:30;4.67;;;2.33;;
17127;SDS011;8679;50.842;4.322;2024-02-28T08:54:57;9.53;;;3.57;;
17127;SDS011;8679;50.842;4.322;2024-02-28T08:57:23;8.57;;;4.13;;
17127;SDS011;8679;50.842;4.322;2024-02-28T08:59:49;6.50;;;2.97;;
17127;SDS011;8679;50.842;4.322;2024-02-28T09:02:15;5.97;;;3.43;;
17127;SDS011;8679;50.842;4.322;2024-02-28T09:04:41;5.87;;;2.93;;
17127;SDS011;8679;50.842;4.322;2024-02-28T09:07:07;11.87;;;5.30;;
17127;SDS011;8679;50.842;4.322;2024-02-28T09:09:33;10.10;;;4.93;;
17127;SDS011;8679;50.842;4.322;2024-02-28T09:12:03;16.83;;;5.30;;
17127;SDS011;8679;50.842;4.322;2024-02-28T09:14:29;7.43;;;3.53;;
17127;SDS011;8679;50.842;4.322;2024-02-28T09:16:55;7.00;;;4.00;;
17127;SDS011;8679;50.842;4.322;2024-02-28T09:19:28;8.47;;;3.03;;
17127;SDS011;8679;50.842;4.322;2024-02-28T09:21:54;5.40;;;3.03;;
17127;SDS011;8679;50.842;4.322;2024-02-28T09:24:20;4.00;;;2.30;;
17127;SDS011;8679;50.842;4.322;2024-02-28T09:26:46;11.07;;;3.40;;
17127;SDS011;8679;50.842;4.322;2024-02-28T09:29:12;9.37;;;3.27;;
17127;SDS011;8679;50.842;4.322;2024-02-28T09:31:38;7.10;;;2.60;;
17127;SDS011;8679;50.842;4.322;2024-02-28T09:34:04;4.73;;;2.60;;
17127;SDS011;8679;50.842;4.322;2024-02-28T09:36:33;12.20;;;3.17;;
17127;SDS011;8679;50.842;4.322;2024-02-28T09:38:59;6.93;;;3.83;;
17127;SDS011;8679;50.842;4.322;2024-02-28T09:41:25;7.10;;;3.53;;
17127;SDS011;8679;50.842;4.322;2024-02-28T09:43:52;4.33;;;2.50;;
17127;SDS011;8679;50.842;4.322;2024-02-28T09:46:18;6.97;;;3.30;;
17127;SDS011;8679;50.842;4.322;2024-02-28T09:48:44;8.00;;;3.20;;
17127;SDS011;8679;50.842;4.322;2024-02-28T09:51:15;13.30;;;3.10;;
17127;SDS011;8679;50.842;4.322;2024-02-28T09:53:43;7.93;;;2.93;;
17127;SDS011;8679;50.842;4.322;2024-02-28T09:56:09;15.87;;;3.20;;
17127;SDS011;8679;50.842;4.322;2024-02-28T09:58:36;9.97;;;4.47;;
17127;SDS011;8679;50.842;4.322;2024-02-28T10:01:04;14.53;;;5.17;;
17127;SDS011;8679;50.842;4.322;2024-02-28T10:03:30;7.60;;;4.13;;
17127;SDS011;8679;50.842;4.322;2024-02-28T10:05:57;11.80;;;3.30;;
17127;SDS011;8679;50.842;4.322;2024-02-28T10:08:23;13.50;;;4.23;;
17127;SDS011;8679;50.842;4.322;2024-02-28T10:10:49;12.60;;;4.67;;
17127;SDS011;8679;50.842;4.322;2024-02-28T10:13:19;13.87;;;4.53;;
17127;SDS011;8679;50.842;4.322;2024-02-28T10:15:47;11.80;;;3.63;;
17127;SDS011;8679;50.842;4.322;2024-02-28T10:18:13;7.53;;;4.13;;
17127;SDS011;8679;50.842;4.322;2024-02-28T10:20:39;14.03;;;3.97;;
17127;SDS011;8679;50.842;4.322;2024-02-28T10:23:05;5.73;;;3.67;;
17127;SDS011;8679;50.842;4.322;2024-02-28T10:25:41;8.40;;;2.97;;
17127;SDS011;8679;50.842;4.322;2024-02-28T10:28:07;5.60;;;2.67;;
17127;SDS011;8679;50.842;4.322;2024-02-28T10:30:38;11.33;;;2.90;;
17127;SDS011;8679;50.842;4.322;2024-02-28T10:33:04;5.23;;;3.03;;
17127;SDS011;8679;50.842;4.322;2024-02-28T10:35:30;6.10;;;3.30;;
17127;SDS011;8679;50.842;4.322;2024-02-28T10:37:56;5.27;;;2.67;;
17127;SDS011;8679;50.842;4.322;2024-02-28T10:40:22;5.77;;;3.33;;
17127;SDS011;8679;50.842;4.322;2024-02-28T10:42:48;8.83;;;3.53;;
17127;SDS011;8679;50.842;4.322;2024-02-28T10:45:15;5.23;;;2.73;;
17127;SDS011;8679;50.842;4.322;2024-02-28T10:47:44;4.97;;;2.93;;
17127;SDS011;8679;50.842;4.322;2024-02-28T10:50:12;4.37;;;2.10;;
17127;SDS011;8679;50.842;4.322;2024-02-28T10:52:43;9.10;;;2.70;;
17127;SDS011;8679;50.842;4.322;2024-02-28T10:55:10;5.97;;;2.97;;
17127;SDS011;8679;50.842;4.322;2024-02-28T10:57:37;5.87;;;3.23;;
17127;SDS011;8679;50.842;4.322;2024-02-28T11:00:04;5.00;;;2.70;;
17127;SDS011;8679;50.842;4.322;2024-02-28T11:02:34;5.63;;;2.43;;
17127;SDS011;8679;50.842;4.322;2024-02-28T11:05:00;3.00;;;2.07;;
17127;SDS011;8679;50.842;4.322;2024-02-28T11:07:27;4.20;;;2.00;;
17127;SDS011;8679;50.842;4.322;2024-02-28T11:09:53;6.83;;;2.73;;
17127;SDS011;8679;50.842;4.322;2024-02-28T11:12:24;4.93;;;2.40;;
17127;SDS011;8679;50.842;4.322;2024-02-28T11:15:00;3.60;;;2.10;;
17127;SDS011;8679;50.842;4.322;2024-02-28T11:17:28;6.33;;;1.90;;
17127;SDS011;8679;50.842;4.322;2024-02-28T11:19:54;4.67;;;1.97;;
17127;SDS011;8679;50.842;4.322;2024-02-28T11:22:20;4.50;;;2.53;;
17127;SDS011;8679;50.842;4.322;2024-02-28T11:24:47;3.97;;;1.50;;
17127;SDS011;8679;50.842;4.322;2024-02-28T11:27:16;3.80;;;2.60;;
17127;SDS011;8679;50.842;4.322;2024-02-28T11:29:42;4.47;;;2.30;;
17127;SDS011;8679;50.842;4.322;2024-02-28T11:32:11;4.33;;;2.03;;
17127;SDS011;8679;50.842;4.322;2024-02-28T11:34:38;2.47;;;1.67;;
17127;SDS011;8679;50.842;4.322;2024-02-28T11:37:05;5.97;;;2.03;;
17127;SDS011;8679;50.842;4.322;2024-02-28T11:39:32;2.40;;;1.30;;
17127;SDS011;8679;50.842;4.322;2024-02-28T11:42:11;3.00;;;1.73;;
17127;SDS011;8679;50.842;4.322;2024-02-28T11:44:54;3.63;;;2.10;;
17127;SDS011;8679;50.842;4.322;2024-02-28T11:47:23;4.13;;;1.97;;
17127;SDS011;8679;50.842;4.322;2024-02-28T11:49:50;7.83;;;2.50;;
17127;SDS011;8679;50.842;4.322;2024-02-28T11:52:16;3.53;;;1.80;;
17127;SDS011;8679;50.842;4.322;2024-02-28T11:54:42;4.07;;;1.87;;
17127;SDS011;8679;50.842;4.322;2024-02-28T11:57:08;4.37;;;1.90;;
17127;SDS011;8679;50.842;4.322;2024-02-28T11:59:39;2.87;;;1.70;;
17127;SDS011;8679;50.842;4.322;2024-02-28T12:02:12;2.77;;;1.47;;
17127;SDS011;8679;50.842;4.322;2024-02-28T12:04:39;2.40;;;1.50;;
17127;SDS011;8679;50.842;4.322;2024-02-28T12:07:05;3.20;;;1.50;;
17127;SDS011;8679;50.842;4.322;2024-02-28T12:09:31;4.50;;;2.00;;
17127;SDS011;8679;50.842;4.322;2024-02-28T12:12:00;3.00;;;1.40;;
17127;SDS011;8679;50.842;4.322;2024-02-28T12:14:26;3.20;;;1.80;;
17127;SDS011;8679;50.842;4.322;2024-02-28T12:16:52;3.43;;;1.67;;
17127;SDS011;8679;50.842;4.322;2024-02-28T12:19:18;2.67;;;1.73;;
17127;SDS011;8679;50.842;4.322;2024-02-28T12:21:45;5.40;;;2.00;;
17127;SDS011;8679;50.842;4.322;2024-02-28T12:24:12;2.50;;;1.30;;
17127;SDS011;8679;50.842;4.322;2024-02-28T12:26:38;3.60;;;1.73;;
17127;SDS011;8679;50.842;4.322;2024-02-28T12:29:05;1.97;;;1.10;;
17127;SDS011;8679;50.842;4.322;2024-02-28T12:31:31;2.13;;;1.23;;
17127;SDS011;8679;50.842;4.322;2024-02-28T12:33:57;2.10;;;1.37;;
17127;SDS011;8679;50.842;4.322;2024-02-28T12:36:24;2.77;;;1.53;;
17127;SDS011;8679;50.842;4.322;2024-02-28T12:38:51;3.27;;;1.50;;
17127;SDS011;8679;50.842;4.322;2024-02-28T12:41:17;1.77;;;1.20;;
17127;SDS011;8679;50.842;4.322;2024-02-28T12:43:43;3.37;;;1.87;;
17127;SDS011;8679;50.842;4.322;2024-02-28T12:46:09;2.37;;;1.53;;
17127;SDS011;8679;50.842;4.322;2024-02-28T12:48:39;3.33;;;2.33;;
17127;SDS011;8679;50.842;4.322;2024-02-28T12:51:20;3.67;;;1.70;;
17127;SDS011;8679;50.842;4.322;2024-02-28T12:53:46;6.07;;;2.10;;
17127;SDS011;8679;50.842;4.322;2024-02-28T12:56:14;2.93;;;1.63;;
17127;SDS011;8679;50.842;4.322;2024-02-28T12:58:40;3.47;;;1.90;;
17127;SDS011;8679;50.842;4.322;2024-02-28T13:01:06;3.03;;;2.17;;
17127;SDS011;8679;50.842;4.322;2024-02-28T13:03:33;4.23;;;1.83;;
17127;SDS011;8679;50.842;4.322;2024-02-28T13:05:59;3.37;;;1.63;;
17127;SDS011;8679;50.842;4.322;2024-02-28T13:08:25;2.23;;;1.47;;
17127;SDS011;8679;50.842;4.322;2024-02-28T13:10:51;5.27;;;1.57;;
17127;SDS011;8679;50.842;4.322;2024-02-28T13:13:17;2.63;;;1.60;;
17127;SDS011;8679;50.842;4.322;2024-02-28T13:15:43;2.83;;;1.83;;
17127;SDS011;8679;50.842;4.322;2024-02-28T13:18:10;3.47;;;1.70;;
17127;SDS011;8679;50.842;4.322;2024-02-28T13:20:36;4.43;;;2.27;;
17127;SDS011;8679;50.842;4.322;2024-02-28T13:23:03;3.37;;;1.47;;
17127;SDS011;8679;50.842;4.322;2024-02-28T13:25:29;2.80;;;1.53;;
17127;SDS011;8679;50.842;4.322;2024-02-28T13:27:56;4.77;;;1.50;;
17127;SDS011;8679;50.842;4.322;2024-02-28T13:30:21;5.27;;;1.83;;
17127;SDS011;8679;50.842;4.322;2024-02-28T13:32:47;3.07;;;1.57;;
17127;SDS011;8679;50.842;4.322;2024-02-28T13:35:14;4.33;;;1.60;;
17127;SDS011;8679;50.842;4.322;2024-02-28T13:37:40;3.43;;;1.67;;
17127;SDS011;8679;50.842;4.322;2024-02-28T13:40:06;8.77;;;1.73;;
17127;SDS011;8679;50.842;4.322;2024-02-28T13:42:32;1.87;;;1.27;;
17127;SDS011;8679;50.842;4.322;2024-02-28T13:44:58;4.07;;;1.80;;
17127;SDS011;8679;50.842;4.322;2024-02-28T13:47:25;5.40;;;1.63;;
17127;SDS011;8679;50.842;4.322;2024-02-28T13:49:51;1.80;;;1.40;;
17127;SDS011;8679;50.842;4.322;2024-02-28T13:52:17;2.50;;;1.50;;
17127;SDS011;8679;50.842;4.322;2024-02-28T13:54:43;3.20;;;1.90;;
17127;SDS011;8679;50.842;4.322;2024-02-28T13:57:10;4.40;;;1.63;;
17127;SDS011;8679;50.842;4.322;2024-02-28T13:59:36;2.03;;;1.47;;
17127;SDS011;8679;50.842;4.322;2024-02-28T14:02:02;2.33;;;1.63;;
17127;SDS011;8679;50.842;4.322;2024-02-28T14:04:28;4.80;;;2.00;;
17127;SDS011;8679;50.842;4.322;2024-02-28T14:06:54;3.10;;;1.53;;
17127;SDS011;8679;50.842;4.322;2024-02-28T14:09:21;2.70;;;1.40;;
17127;SDS011;8679;50.842;4.322;2024-02-28T14:11:47;2.57;;;1.37;;
17127;SDS011;8679;50.842;4.322;2024-02-28T14:14:13;2.80;;;1.53;;
17127;SDS011;8679;50.842;4.322;2024-02-28T14:16:40;3.43;;;1.40;;
17127;SDS011;8679;50.842;4.322;2024-02-28T14:19:07;3.37;;;1.67;;
17127;SDS011;8679;50.842;4.322;2024-02-28T14:21:33;2.43;;;1.13;;
17127;SDS011;8679;50.842;4.322;2024-02-28T14:23:59;2.63;;;1.47;;
17127;SDS011;8679;50.842;4.322;2024-02-28T14:26:25;4.23;;;1.60;;
17127;SDS011;8679;50.842;4.322;2024-02-28T14:28:52;3.57;;;1.53;;
17127;SDS011;8679;50.842;4.322;2024-02-28T14:31:20;4.73;;;1.63;;
17127;SDS011;8679;50.842;4.322;2024-02-28T14:33:46;1.90;;;1.17;;
17127;SDS011;8679;50.842;4.322;2024-02-28T14:36:12;2.07;;;1.53;;
17127;SDS011;8679;50.842;4.322;2024-02-28T14:38:39;3.90;;;1.87;;
17127;SDS011;8679;50.842;4.322;2024-02-28T14:41:05;3.37;;;1.80;;
17127;SDS011;8679;50.842;4.322;2024-02-28T14:43:32;3.50;;;1.93;;
17127;SDS011;8679;50.842;4.322;2024-02-28T14:45:58;4.40;;;1.63;;
17127;SDS011;8679;50.842;4.322;2024-02-28T14:48:24;2.87;;;1.27;;
17127;SDS011;8679;50.842;4.322;2024-02-28T14:50:50;3.17;;;1.40;;
17127;SDS011;8679;50.842;4.322;2024-02-28T14:53:18;2.73;;;1.10;;
17127;SDS011;8679;50.842;4.322;2024-02-28T14:55:46;3.47;;;1.70;;